Airfield :
LOGIN :

Register | Disclaimer

   EN    FR    IT 

 










Legend :    VFR   Marginal VFR   IFR   Intensive IFR   Very Intensive IFR
Visi :
Ceiling :
>= 8 km
>= 3000ft
5 to 8 km
1000 to 3000 ft
1500m to 5 km
500 to 1000 ft
800 to 1500m
200 to 500 ft
< 800m
< 200 ft
Symbols :   Thunderstorms  Fog  Heavy snow  Heavy precipitations  Wind > 20 kt
SIGMETs :     Misc.  Thunderstorms  Icing  Turbulence  Mountain Waves  Volcanic Ashes






- Airport Elevation : 458 ft


LFSI - St-Dizier

CURRENT METAR :
  • 272030Z AUTO 19012KT 9999 OVC020 08/06 Q1003

EXPIRED METARs :
  • 272000Z AUTO 19012KT 9999 -RA OVC017/// ///TCU 08/06 Q1003
  • 271930Z AUTO 19011KT 160V220 9999 -RA BKN017/// OVC022/// ///CB 08/06 Q1004
  • 271900Z AUTO 19012KT 150V220 9999 RA BKN018/// OVC024/// ///TCU 08/06 Q1004
  • 271830Z AUTO 19011KT 160V220 9999 -RA BKN016 OVC022 08/06 Q1005
  • 271800Z AUTO 18009KT 150V210 9999 -DZ BKN016 BKN021 OVC037 08/06 Q1005

TAF TAF LFSI
Valid from the 27 at 21:00 until the 28 at 21:00 UTC


272000Z 2721/2821 22017KT 9999 BKN015 SCT025TCU OVC040
TEMPO 2721/2821 25025G35KT 2000 SHRA BKN015CB
PROB30
TEMPO 2721/2818 25030G40KT TSRA



MET'MAP, your aeronautical weather chart ! - Copyright ORBIFLY December 2007 - Disclaimer

ORBIFLY MET'MAP TEAM :

Programming & Development : Alexandra Zaïnal
Concept & original design : Baudouin d'Aumeries
Assistance for programming : Marc-Olivier Méhu
Technical & hardware support : Manuel Goepfert

Contact : metmap@orbifly.com




SOURCES & CREDITS :

   NOAA